createdAt,value
2018-10-18T00:00:10.707Z,61.75
2018-10-18T00:01:14.665Z,56.13
2018-10-18T00:02:18.801Z,65.03
2018-10-18T00:03:22.771Z,60.55
2018-10-18T00:04:26.830Z,63.78
2018-10-18T00:05:30.972Z,61.83
2018-10-18T00:06:34.974Z,61.98
2018-10-18T00:07:39.084Z,60.48
2018-10-18T00:08:43.100Z,58.30
2018-10-18T00:09:47.121Z,59.25
2018-10-18T00:10:51.081Z,55.75
2018-10-18T00:11:55.158Z,66.97
2018-10-18T00:12:59.300Z,61.70
2018-10-18T00:14:03.412Z,54.40
2018-10-18T00:15:08.001Z,56.83
2018-10-18T00:16:12.223Z,59.65
2018-10-18T00:17:21.485Z,61.35
2018-10-18T00:18:25.635Z,70.00
2018-10-18T00:19:29.775Z,58.00
2018-10-18T00:20:33.861Z,61.65
2018-10-18T00:23:06.407Z,60.40
2018-10-18T00:24:10.412Z,62.95
2018-10-18T00:25:14.869Z,52.17
2018-10-18T00:26:18.876Z,62.13
2018-10-18T00:27:22.991Z,59.05
2018-10-18T00:28:26.973Z,54.77
2018-10-18T00:29:31.043Z,60.75
2018-10-18T00:30:35.048Z,60.30
2018-10-18T00:31:39.145Z,57.45
2018-10-18T00:32:44.139Z,59.58
2018-10-18T00:33:48.272Z,60.05
2018-10-18T00:34:52.355Z,61.08
2018-10-18T00:35:56.410Z,68.75
2018-10-18T00:37:00.403Z,59.70
2018-10-18T00:38:04.460Z,58.60
2018-10-18T00:39:11.780Z,67.90
2018-10-18T00:40:15.935Z,54.58
2018-10-18T00:41:19.983Z,64.50
2018-10-18T00:42:24.044Z,59.23
2018-10-18T00:43:28.336Z,61.77
2018-10-18T00:44:32.357Z,62.78
2018-10-18T00:45:36.376Z,59.50
2018-10-18T00:46:40.402Z,61.85
2018-10-18T00:47:44.468Z,67.80
2018-10-18T00:48:48.625Z,60.58
2018-10-18T00:49:52.691Z,54.50
2018-10-18T00:50:56.699Z,57.93
2018-10-18T00:52:00.762Z,59.58
2018-10-18T00:53:05.063Z,55.78
2018-10-18T00:54:09.364Z,63.73
2018-10-18T00:55:13.313Z,64.87
2018-10-18T00:56:17.415Z,67.70
2018-10-18T00:57:21.475Z,63.63
2018-10-18T00:58:25.773Z,59.00
2018-10-18T00:59:29.773Z,64.45
2018-10-18T01:00:33.897Z,61.18
2018-10-18T01:01:37.878Z,56.83
2018-10-18T01:02:41.872Z,62.90
2018-10-18T01:03:46.046Z,55.88
2018-10-18T01:04:50.090Z,62.98
2018-10-18T01:05:54.212Z,61.13
2018-10-18T01:06:58.550Z,56.55
2018-10-18T01:08:02.682Z,58.95
2018-10-18T01:09:07.982Z,59.38
2018-10-18T01:10:11.971Z,57.17
2018-10-18T01:11:15.948Z,56.85
2018-10-18T01:12:20.099Z,61.70
2018-10-18T01:13:24.137Z,58.28
2018-10-18T01:14:28.410Z,60.12
2018-10-18T01:15:32.510Z,53.73
2018-10-18T01:16:36.557Z,61.33
2018-10-18T01:17:40.629Z,59.70
2018-10-18T01:18:44.866Z,57.62
2018-10-18T01:19:48.928Z,62.50
2018-10-18T01:20:52.958Z,58.58
2018-10-18T01:21:56.959Z,53.75
2018-10-18T01:23:00.929Z,51.28
2018-10-18T01:24:05.501Z,61.15
2018-10-18T01:25:09.557Z,57.65
2018-10-18T01:26:13.616Z,64.50
2018-10-18T01:27:17.668Z,61.63
2018-10-18T01:28:21.777Z,55.98
2018-10-18T01:29:26.244Z,57.93
2018-10-18T01:30:30.367Z,56.37
2018-10-18T01:31:34.425Z,59.75
2018-10-18T01:32:38.529Z,59.58
2018-10-18T01:33:42.750Z,56.55
2018-10-18T01:34:46.798Z,58.38
2018-10-18T01:35:50.876Z,55.58
2018-10-18T01:36:54.961Z,64.72
2018-10-18T01:37:59.046Z,58.25
2018-10-18T01:39:03.037Z,60.12
2018-10-18T01:40:07.225Z,53.95
2018-10-18T01:41:11.255Z,63.73
2018-10-18T01:42:15.387Z,56.23
2018-10-18T01:43:19.408Z,67.53
2018-10-18T01:44:23.797Z,61.05
2018-10-18T01:45:28.043Z,61.68
2018-10-18T01:46:32.188Z,56.50
2018-10-18T01:47:36.181Z,54.48
2018-10-18T01:48:40.262Z,58.75
2018-10-18T01:49:44.277Z,59.70
2018-10-18T01:50:48.253Z,61.88
2018-10-18T01:51:52.252Z,61.55
2018-10-18T01:52:56.261Z,54.93
2018-10-18T01:54:00.435Z,55.90
2018-10-18T01:55:05.562Z,55.43
2018-10-18T01:56:09.725Z,59.48
2018-10-18T01:57:13.711Z,64.53
2018-10-18T01:58:17.719Z,64.70
2018-10-18T01:59:21.797Z,54.35
2018-10-18T02:00:25.788Z,69.10
2018-10-18T02:01:30.486Z,62.10
2018-10-18T02:02:34.513Z,72.25
2018-10-18T02:03:38.528Z,70.15
2018-10-18T02:04:42.666Z,66.72
2018-10-18T02:05:46.652Z,61.83
2018-10-18T02:06:50.709Z,72.25
2018-10-18T02:07:54.859Z,67.72
2018-10-18T02:08:58.823Z,65.03
2018-10-18T02:10:02.960Z,58.92
2018-10-18T02:11:07.308Z,69.40
2018-10-18T02:12:11.490Z,65.35
2018-10-18T02:13:15.430Z,62.85
2018-10-18T02:14:19.520Z,67.62
2018-10-18T02:15:23.512Z,72.20
2018-10-18T02:16:27.535Z,61.08
2018-10-18T02:17:31.708Z,68.20
2018-10-18T02:18:35.700Z,75.35
2018-10-18T02:19:40.016Z,72.60
2018-10-18T02:20:44.011Z,73.05
2018-10-18T02:21:48.029Z,72.00
2018-10-18T02:22:52.710Z,76.75
2018-10-18T02:23:56.899Z,64.60
2018-10-18T02:25:01.011Z,72.00
2018-10-18T02:26:04.992Z,68.78
2018-10-18T02:27:09.205Z,83.95
2018-10-18T02:28:13.412Z,75.25
2018-10-18T02:29:17.448Z,78.50
2018-10-18T02:30:21.583Z,71.80
2018-10-18T02:31:25.621Z,77.42
2018-10-18T02:32:29.915Z,74.75
2018-10-18T02:33:33.941Z,69.72
2018-10-18T02:34:37.972Z,74.47
2018-10-18T02:35:42.103Z,69.70
2018-10-18T02:36:46.160Z,73.00
2018-10-18T02:37:50.216Z,68.83
2018-10-18T02:38:54.265Z,70.22
2018-10-18T02:39:58.307Z,74.10
2018-10-18T02:41:02.313Z,73.75
2018-10-18T02:42:06.588Z,70.60
2018-10-18T02:43:10.627Z,62.25
2018-10-18T02:44:14.672Z,71.12
2018-10-18T02:45:18.741Z,68.90
2018-10-18T02:46:22.802Z,78.00
2018-10-18T02:47:26.905Z,72.15
2018-10-18T02:48:31.012Z,72.92
2018-10-18T02:49:35.067Z,68.45
2018-10-18T02:50:39.110Z,78.83
2018-10-18T02:51:43.209Z,71.42
2018-10-18T02:52:47.356Z,74.32
2018-10-18T02:53:51.407Z,73.57
2018-10-18T02:54:55.399Z,70.40
2018-10-18T02:55:59.513Z,72.32
2018-10-18T02:57:03.497Z,72.35
2018-10-18T02:58:07.529Z,67.97
2018-10-18T02:59:11.525Z,65.85
2018-10-18T03:00:15.606Z,71.22
2018-10-18T03:01:19.553Z,66.53
2018-10-18T03:02:23.593Z,69.53
2018-10-18T03:03:27.625Z,64.58
2018-10-18T03:04:31.652Z,69.82
2018-10-18T03:05:35.664Z,67.17
2018-10-18T03:06:39.697Z,70.55
2018-10-18T03:07:43.796Z,68.47
2018-10-18T03:08:47.821Z,75.40
2018-10-18T03:09:51.867Z,83.33
2018-10-18T03:10:55.920Z,71.17
2018-10-18T03:12:00.093Z,72.17
2018-10-18T03:13:04.055Z,71.00
2018-10-18T03:14:08.176Z,67.42
2018-10-18T03:15:12.220Z,75.15
2018-10-18T03:16:16.288Z,70.08
2018-10-18T03:17:20.427Z,68.52
2018-10-18T03:18:24.433Z,66.20
2018-10-18T03:19:28.511Z,74.17
2018-10-18T03:20:32.871Z,79.15
2018-10-18T03:21:36.924Z,76.87
2018-10-18T03:22:42.591Z,72.08
2018-10-18T03:23:46.618Z,65.72
2018-10-18T03:24:50.680Z,68.67
2018-10-18T03:25:54.709Z,73.67
2018-10-18T03:26:58.797Z,73.47
2018-10-18T03:28:03.104Z,72.42
2018-10-18T03:29:07.091Z,68.00
2018-10-18T03:30:11.104Z,73.97
2018-10-18T03:31:15.182Z,65.90
2018-10-18T03:32:19.662Z,69.60
2018-10-18T03:33:23.684Z,74.37
2018-10-18T03:34:27.753Z,69.82
2018-10-18T03:35:31.831Z,72.97
2018-10-18T03:36:35.929Z,63.15
2018-10-18T03:37:39.929Z,65.87
2018-10-18T03:38:43.960Z,64.03
2018-10-18T03:39:47.997Z,70.35
2018-10-18T03:40:52.028Z,59.70
2018-10-18T03:41:56.074Z,71.57
2018-10-18T03:43:00.033Z,61.68
2018-10-18T03:44:04.629Z,73.20
2018-10-18T03:45:08.659Z,66.40
2018-10-18T03:46:12.752Z,67.70
2018-10-18T03:47:16.822Z,68.72
2018-10-18T03:48:20.946Z,63.10
2018-10-18T03:49:24.943Z,64.05
2018-10-18T03:50:28.927Z,63.60
2018-10-18T03:51:33.197Z,61.90
2018-10-18T03:52:37.189Z,61.88
2018-10-18T03:53:41.313Z,60.65
2018-10-18T03:54:45.449Z,61.13
2018-10-18T03:55:49.652Z,60.85
2018-10-18T03:56:53.692Z,62.83
2018-10-18T03:57:57.856Z,55.12
2018-10-18T03:59:01.876Z,60.48
2018-10-18T04:00:07.034Z,56.15
2018-10-18T04:01:11.037Z,59.98
2018-10-18T04:02:15.047Z,54.23
2018-10-18T04:03:19.262Z,60.25
2018-10-18T04:04:23.325Z,62.95
2018-10-18T04:05:27.484Z,60.30
2018-10-18T04:06:31.465Z,56.15
2018-10-18T04:07:35.586Z,53.13
2018-10-18T04:08:39.639Z,63.70
2018-10-18T04:09:43.686Z,55.35
2018-10-18T04:10:47.831Z,61.85
2018-10-18T04:11:51.866Z,54.55
2018-10-18T04:12:55.967Z,55.10
2018-10-18T04:13:59.896Z,60.28
2018-10-18T04:15:03.937Z,59.48
2018-10-18T04:16:08.030Z,57.13
2018-10-18T04:17:12.024Z,56.02
2018-10-18T04:18:16.255Z,61.23
2018-10-18T04:19:20.467Z,57.05
2018-10-18T04:20:24.494Z,54.60
2018-10-18T04:21:28.744Z,60.70
2018-10-18T04:22:32.731Z,51.50
2018-10-18T04:23:37.040Z,59.90
2018-10-18T04:24:41.068Z,55.92
2018-10-18T04:25:45.180Z,63.42
2018-10-18T04:26:49.628Z,56.33
2018-10-18T04:27:53.706Z,58.00
2018-10-18T04:28:57.699Z,62.10
2018-10-18T04:30:01.747Z,56.60
2018-10-18T04:31:05.803Z,56.65
2018-10-18T04:32:09.843Z,55.63
2018-10-18T04:33:13.842Z,51.60
2018-10-18T04:34:17.828Z,66.53
2018-10-18T04:35:21.939Z,56.33
2018-10-18T04:36:26.008Z,66.60
2018-10-18T04:37:30.237Z,54.33
2018-10-18T04:38:34.293Z,55.45
2018-10-18T04:39:38.474Z,53.55
2018-10-18T04:40:42.507Z,54.85
2018-10-18T04:41:46.556Z,59.73
2018-10-18T04:42:50.609Z,55.38
2018-10-18T04:43:54.625Z,57.17
2018-10-18T04:44:58.661Z,61.25
2018-10-18T04:46:02.606Z,55.60
2018-10-18T04:47:07.004Z,58.42
2018-10-18T04:48:11.232Z,61.73
2018-10-18T04:49:15.249Z,57.43
2018-10-18T04:50:19.316Z,58.65
2018-10-18T04:51:24.963Z,57.25
2018-10-18T04:52:29.008Z,56.92
2018-10-18T04:53:33.147Z,55.60
2018-10-18T04:54:37.190Z,56.70
2018-10-18T04:55:41.252Z,69.22
2018-10-18T04:56:45.429Z,60.78
2018-10-18T04:57:49.545Z,58.65
2018-10-18T04:58:53.566Z,61.35
2018-10-18T04:59:57.612Z,67.80
2018-10-18T05:01:01.681Z,54.53
2018-10-18T05:02:05.713Z,57.05
2018-10-18T05:03:09.734Z,60.88
2018-10-18T05:04:13.809Z,56.30
2018-10-18T05:05:29.241Z,60.78
2018-10-18T05:06:33.260Z,59.63
2018-10-18T05:07:37.341Z,57.67
2018-10-18T05:08:41.547Z,64.05
2018-10-18T05:09:45.568Z,57.90
2018-10-18T05:10:49.716Z,65.90
2018-10-18T05:11:53.850Z,61.42
2018-10-18T05:12:57.976Z,62.55
2018-10-18T05:14:02.008Z,56.10
2018-10-18T05:15:06.832Z,67.32
2018-10-18T05:16:10.909Z,60.28
2018-10-18T05:17:15.027Z,60.38
2018-10-18T05:18:19.385Z,61.85
2018-10-18T05:19:23.414Z,58.02
2018-10-18T05:20:27.496Z,62.27
2018-10-18T05:21:31.607Z,63.30
2018-10-18T05:22:35.628Z,57.93
2018-10-18T05:23:39.656Z,63.38
2018-10-18T05:24:43.696Z,59.67
2018-10-18T05:25:48.839Z,57.33
2018-10-18T05:26:52.896Z,63.50
2018-10-18T05:27:56.943Z,54.80
2018-10-18T05:29:01.023Z,59.13
2018-10-18T05:30:05.622Z,67.45
2018-10-18T05:31:09.710Z,57.93
2018-10-18T05:32:13.747Z,57.45
2018-10-18T05:33:17.807Z,53.75
2018-10-18T05:34:21.807Z,58.02
2018-10-18T05:35:26.035Z,59.95
2018-10-18T05:36:30.069Z,59.27
2018-10-18T05:37:34.268Z,61.13
2018-10-18T05:38:38.263Z,51.02
2018-10-18T05:39:42.343Z,54.80
2018-10-18T05:40:46.636Z,56.05
2018-10-18T05:41:50.770Z,58.52
2018-10-18T05:42:54.855Z,63.50
2018-10-18T05:43:58.906Z,56.25
2018-10-18T05:45:02.925Z,60.45
2018-10-18T05:46:06.928Z,57.67
2018-10-18T05:47:10.984Z,56.18
2018-10-18T05:48:15.035Z,55.78
2018-10-18T05:49:19.217Z,58.73
2018-10-18T05:50:23.096Z,50.45
2018-10-18T05:51:27.191Z,56.50
2018-10-18T05:52:31.289Z,56.88
2018-10-18T05:53:35.423Z,60.15
2018-10-18T05:54:39.363Z,59.10
2018-10-18T05:55:43.438Z,56.50
2018-10-18T05:56:47.560Z,62.88
2018-10-18T05:57:51.539Z,54.20
2018-10-18T05:58:55.623Z,57.65
2018-10-18T05:59:59.657Z,54.18
2018-10-18T06:01:03.668Z,54.93
2018-10-18T06:02:08.058Z,55.43
2018-10-18T06:03:12.604Z,59.80
2018-10-18T06:04:16.907Z,56.55
2018-10-18T06:05:20.908Z,52.65
2018-10-18T06:06:24.961Z,52.00
2018-10-18T06:07:29.655Z,55.12
2018-10-18T06:08:33.657Z,64.53
2018-10-18T06:09:37.673Z,57.78
2018-10-18T06:10:53.209Z,55.40
2018-10-18T06:11:57.184Z,50.98
2018-10-18T06:13:01.276Z,52.13
2018-10-18T06:14:05.494Z,55.43
2018-10-18T06:15:09.662Z,51.92
2018-10-18T06:16:13.678Z,54.48
2018-10-18T06:17:17.687Z,57.70
2018-10-18T06:18:21.737Z,56.55
2018-10-18T06:19:25.915Z,65.97
2018-10-18T06:20:29.912Z,68.95
2018-10-18T06:21:34.162Z,53.63
2018-10-18T06:22:38.406Z,53.40
2018-10-18T06:23:42.452Z,56.98
2018-10-18T06:24:46.624Z,53.63
2018-10-18T06:25:50.678Z,50.40
2018-10-18T06:26:54.740Z,56.08
2018-10-18T06:27:59.173Z,62.48
2018-10-18T06:29:03.429Z,54.13
2018-10-18T06:30:09.587Z,54.13
2018-10-18T06:31:13.655Z,55.78
2018-10-18T06:32:17.773Z,49.75
2018-10-18T06:33:21.752Z,58.38
2018-10-18T06:34:25.825Z,58.98
2018-10-18T06:35:30.019Z,57.08
2018-10-18T06:36:34.142Z,54.77
2018-10-18T06:37:38.409Z,56.45
2018-10-18T06:38:42.410Z,58.73
2018-10-18T06:39:46.437Z,60.80
2018-10-18T06:40:50.505Z,57.43
2018-10-18T06:41:54.559Z,58.52
2018-10-18T06:42:58.545Z,58.02
2018-10-18T06:44:02.617Z,54.35
2018-10-18T06:45:07.936Z,55.67
2018-10-18T06:46:13.272Z,65.20
2018-10-18T06:47:17.284Z,67.90
2018-10-18T06:48:21.272Z,58.55
2018-10-18T06:49:25.386Z,56.08
2018-10-18T06:50:29.385Z,60.23
2018-10-18T06:51:33.459Z,56.18
2018-10-18T06:52:37.599Z,53.83
2018-10-18T06:53:42.216Z,56.23
2018-10-18T06:54:46.259Z,60.95
2018-10-18T06:55:50.420Z,88.05
2018-10-18T06:56:54.505Z,70.95
2018-10-18T06:57:58.448Z,55.25
2018-10-18T06:59:02.499Z,68.07
2018-10-18T07:00:12.697Z,57.53
2018-10-18T07:01:16.735Z,56.30
2018-10-18T07:02:20.849Z,51.98
2018-10-18T07:03:24.855Z,60.70
2018-10-18T07:04:28.986Z,53.33
2018-10-18T07:05:33.004Z,52.78
2018-10-18T07:06:36.982Z,60.70
2018-10-18T07:07:42.141Z,74.87
2018-10-18T07:08:46.232Z,59.33
2018-10-18T07:09:50.219Z,53.87
2018-10-18T07:10:54.251Z,53.92
2018-10-18T07:11:58.195Z,56.53
2018-10-18T07:13:02.260Z,57.23
2018-10-18T07:14:06.313Z,56.33
2018-10-18T07:15:11.168Z,64.05
2018-10-18T07:16:15.251Z,55.30
2018-10-18T07:17:19.579Z,56.35
2018-10-18T07:18:23.579Z,56.20
2018-10-18T07:19:27.741Z,53.50
2018-10-18T07:20:31.730Z,60.38
2018-10-18T07:21:36.049Z,51.83
2018-10-18T07:22:40.476Z,50.05
2018-10-18T07:23:44.572Z,55.67
2018-10-18T07:24:48.632Z,50.85
2018-10-18T07:25:59.366Z,48.68
2018-10-18T07:27:03.416Z,53.13
2018-10-18T07:28:07.380Z,51.13
2018-10-18T07:29:11.527Z,46.77
2018-10-18T07:30:15.979Z,44.13
2018-10-18T07:31:19.910Z,46.10
2018-10-18T07:32:24.119Z,60.28
2018-10-18T07:33:28.235Z,49.25
2018-10-18T07:34:32.422Z,47.08
2018-10-18T07:35:36.392Z,48.70
2018-10-18T07:36:40.456Z,45.95
2018-10-18T07:37:44.504Z,46.58
2018-10-18T07:38:48.614Z,49.73
2018-10-18T07:39:52.675Z,44.65
2018-10-18T07:40:56.760Z,59.13
2018-10-18T07:42:00.813Z,49.15
2018-10-18T07:43:04.936Z,44.50
2018-10-18T07:44:09.347Z,48.68
2018-10-18T07:45:14.346Z,54.65
2018-10-18T07:46:18.538Z,59.75
2018-10-18T07:47:22.616Z,48.83
2018-10-18T07:48:26.642Z,47.98
2018-10-18T07:49:30.757Z,46.25
2018-10-18T07:50:35.003Z,43.33
2018-10-18T07:51:39.079Z,41.70
2018-10-18T07:52:43.251Z,44.98
2018-10-18T07:53:47.308Z,46.75
2018-10-18T07:54:51.433Z,46.08
2018-10-18T07:55:55.715Z,44.75
2018-10-18T07:56:59.701Z,42.88
2018-10-18T07:58:03.756Z,46.58
2018-10-18T07:59:07.787Z,48.35
2018-10-18T08:00:13.589Z,41.35
2018-10-18T08:01:17.361Z,39.80
2018-10-18T08:02:21.365Z,45.10
2018-10-18T08:03:27.760Z,48.00
2018-10-18T08:04:31.853Z,38.53
2018-10-18T08:05:35.949Z,45.20
2018-10-18T08:06:40.014Z,43.48
2018-10-18T08:07:44.025Z,45.23
2018-10-18T08:08:48.098Z,39.18
2018-10-18T08:09:52.184Z,50.30
2018-10-18T08:10:56.282Z,49.53
2018-10-18T08:12:00.272Z,42.95
2018-10-18T08:13:04.783Z,42.88
2018-10-18T08:14:08.881Z,42.43
2018-10-18T08:15:14.127Z,42.17
2018-10-18T08:16:18.215Z,40.70
2018-10-18T08:17:22.463Z,43.78
2018-10-18T08:18:26.401Z,41.40
2018-10-18T08:19:30.471Z,36.75
2018-10-18T08:20:34.510Z,41.08
2018-10-18T08:21:38.697Z,37.80
2018-10-18T08:22:43.313Z,34.70
2018-10-18T08:23:47.280Z,37.40
2018-10-18T08:24:51.314Z,32.63
2018-10-18T08:25:55.324Z,35.23
2018-10-18T08:26:59.389Z,31.60
2018-10-18T08:28:03.469Z,32.67
2018-10-18T08:29:07.510Z,35.55
2018-10-18T08:30:12.937Z,33.00
2018-10-18T08:31:17.129Z,30.82
2018-10-18T08:32:21.062Z,36.03
2018-10-18T08:33:25.557Z,32.60
2018-10-18T08:34:29.750Z,29.92
2018-10-18T08:35:33.724Z,33.85
2018-10-18T08:36:37.829Z,32.15
2018-10-18T08:37:42.052Z,38.95
2018-10-18T08:38:45.941Z,36.03
2018-10-18T08:39:50.089Z,40.58
2018-10-18T08:40:56.985Z,33.63
2018-10-18T08:42:01.117Z,35.60
2018-10-18T08:43:05.238Z,38.75
2018-10-18T08:44:09.270Z,34.65
2018-10-18T08:45:13.241Z,32.58
2018-10-18T08:46:17.375Z,42.80
2018-10-18T08:47:21.581Z,38.92
2018-10-18T08:48:25.626Z,39.95
2018-10-18T08:49:29.859Z,38.83
2018-10-18T08:50:33.903Z,40.92
2018-10-18T08:51:37.995Z,33.45
2018-10-18T08:52:41.982Z,41.98
2018-10-18T08:53:45.968Z,39.85
2018-10-18T08:54:49.973Z,39.48
2018-10-18T08:55:53.996Z,34.70
2018-10-18T08:56:57.992Z,39.15
2018-10-18T08:58:02.096Z,40.70
2018-10-18T08:59:06.443Z,36.98
2018-10-18T09:00:11.599Z,33.80
2018-10-18T09:01:15.655Z,35.52
2018-10-18T09:02:19.569Z,32.45
2018-10-18T09:03:23.556Z,33.60
2018-10-18T09:04:27.602Z,33.45
2018-10-18T09:05:31.605Z,36.00
2018-10-18T09:06:35.656Z,34.88
2018-10-18T09:07:39.816Z,37.30
2018-10-18T09:08:43.947Z,40.30
2018-10-18T09:09:48.032Z,36.45
2018-10-18T09:10:52.048Z,44.53
2018-10-18T09:11:56.099Z,37.93
2018-10-18T09:13:00.224Z,43.35
2018-10-18T09:14:05.132Z,48.55
2018-10-18T09:15:09.656Z,41.20
2018-10-18T09:16:13.796Z,47.05
2018-10-18T09:17:17.787Z,45.63
2018-10-18T09:18:22.105Z,40.23
2018-10-18T09:19:26.125Z,39.15
2018-10-18T09:20:30.275Z,39.80
2018-10-18T09:21:34.526Z,40.38
2018-10-18T09:22:38.628Z,38.98
2018-10-18T09:23:42.880Z,39.15
2018-10-18T09:24:46.914Z,38.55
2018-10-18T09:25:50.976Z,35.20
2018-10-18T09:26:55.031Z,39.95
2018-10-18T09:27:59.033Z,37.05
2018-10-18T09:29:03.037Z,35.52
2018-10-18T09:30:08.555Z,39.27
2018-10-18T09:31:12.608Z,39.70
2018-10-18T09:32:16.614Z,40.03
2018-10-18T09:33:20.615Z,39.23
2018-10-18T09:34:24.671Z,35.73
2018-10-18T09:35:28.741Z,35.28
2018-10-18T09:36:32.717Z,29.35
2018-10-18T09:37:36.779Z,34.25
2018-10-18T09:38:41.244Z,42.53
2018-10-18T09:39:44.837Z,32.83
2018-10-18T09:40:48.977Z,32.20
2018-10-18T09:41:53.020Z,32.13
2018-10-18T09:42:57.179Z,28.10
2018-10-18T09:44:04.342Z,30.80
2018-10-18T09:45:10.262Z,31.52
2018-10-18T09:46:14.257Z,33.75
2018-10-18T09:47:18.338Z,28.65
2018-10-18T09:48:22.419Z,28.60
2018-10-18T09:49:26.440Z,36.08
2018-10-18T09:50:30.620Z,29.10
2018-10-18T09:51:35.447Z,28.85
2018-10-18T09:52:39.805Z,27.45
2018-10-18T09:53:44.913Z,30.62
2018-10-18T09:54:48.964Z,32.50
2018-10-18T09:55:53.017Z,28.60
2018-10-18T09:56:57.206Z,28.98
2018-10-18T09:58:01.227Z,28.77
2018-10-18T09:59:05.627Z,27.90
2018-10-18T10:00:15.105Z,32.40
2018-10-18T10:01:24.620Z,27.85
2018-10-18T10:02:34.051Z,30.30
2018-10-18T10:03:38.108Z,28.47
2018-10-18T10:04:42.130Z,26.93
2018-10-18T10:05:46.239Z,32.23
2018-10-18T10:06:50.210Z,29.50
2018-10-18T10:07:54.323Z,28.65
2018-10-18T10:08:58.384Z,28.95
2018-10-18T10:10:02.368Z,30.88
2018-10-18T10:11:06.634Z,25.55
2018-10-18T10:12:10.653Z,30.92
2018-10-18T10:13:14.753Z,30.82
2018-10-18T10:14:18.674Z,28.02
2018-10-18T10:15:22.765Z,29.07
2018-10-18T10:16:26.795Z,32.95
2018-10-18T10:17:30.889Z,39.48
2018-10-18T10:18:34.880Z,30.70
2018-10-18T10:19:38.893Z,29.55
2018-10-18T10:20:42.940Z,33.00
2018-10-18T10:21:47.174Z,30.62
2018-10-18T10:22:51.331Z,29.30
2018-10-18T10:23:55.376Z,36.48
2018-10-18T10:24:59.428Z,35.05
2018-10-18T10:26:03.793Z,35.65
2018-10-18T10:27:08.014Z,29.25
2018-10-18T10:28:12.071Z,32.85
2018-10-18T10:29:16.081Z,30.88
2018-10-18T10:30:20.146Z,31.82
2018-10-18T10:31:24.208Z,25.35
2018-10-18T10:32:28.298Z,27.65
2018-10-18T10:33:32.322Z,24.37
2018-10-18T10:34:36.323Z,28.62
2018-10-18T10:35:40.393Z,29.35
2018-10-18T10:36:44.350Z,24.00
2018-10-18T10:37:48.440Z,22.25
2018-10-18T10:38:52.496Z,21.85
2018-10-18T10:39:56.617Z,20.57
2018-10-18T10:41:00.753Z,22.10
2018-10-18T10:42:05.452Z,22.65
2018-10-18T10:43:09.483Z,22.25
2018-10-18T10:44:13.723Z,20.97
2018-10-18T10:45:17.630Z,17.92
2018-10-18T10:46:21.815Z,20.52
2018-10-18T10:47:25.689Z,20.10
2018-10-18T10:48:29.768Z,20.82
2018-10-18T10:49:33.781Z,19.67
2018-10-18T10:50:37.877Z,16.55
2018-10-18T10:51:42.080Z,15.03
2018-10-18T10:52:46.237Z,21.20
2018-10-18T10:53:50.311Z,13.53
2018-10-18T10:54:54.359Z,16.07
2018-10-18T10:55:58.349Z,16.62
2018-10-18T10:57:02.352Z,13.90
2018-10-18T10:58:06.702Z,10.40
2018-10-18T10:59:14.734Z,12.23
2018-10-18T11:01:23.425Z,8.90
2018-10-18T11:02:27.476Z,10.80
2018-10-18T11:03:31.528Z,10.50
2018-10-18T11:04:35.521Z,8.45
2018-10-18T11:05:39.675Z,7.22
2018-10-18T11:06:43.652Z,9.40
2018-10-18T11:07:47.879Z,8.03
2018-10-18T11:08:51.870Z,7.20
2018-10-18T11:09:55.942Z,6.58
2018-10-18T11:10:59.977Z,9.60
2018-10-18T11:12:04.148Z,7.62
2018-10-18T11:13:08.158Z,6.72
2018-10-18T11:14:12.219Z,6.37
2018-10-18T11:15:16.384Z,8.75
2018-10-18T11:16:20.240Z,10.85
2018-10-18T11:17:24.305Z,8.03
2018-10-18T11:18:28.482Z,8.43
2018-10-18T11:19:32.533Z,7.85
2018-10-18T11:20:36.520Z,5.83
2018-10-18T11:21:40.539Z,9.23
2018-10-18T11:22:44.627Z,7.70
2018-10-18T11:23:48.703Z,8.38
2018-10-18T11:24:52.765Z,8.50
2018-10-18T11:25:56.842Z,9.25
2018-10-18T11:27:00.878Z,6.60
2018-10-18T11:28:04.928Z,7.58
2018-10-18T11:29:08.871Z,12.18
2018-10-18T11:30:13.014Z,9.70
2018-10-18T11:31:16.987Z,7.40
2018-10-18T11:32:20.975Z,8.78
2018-10-18T11:33:24.956Z,7.12
2018-10-18T11:34:29.005Z,7.17
2018-10-18T11:35:33.147Z,6.08
2018-10-18T11:36:37.125Z,5.25
2018-10-18T11:37:41.271Z,5.53
2018-10-18T11:38:45.248Z,8.48
2018-10-18T11:39:49.275Z,6.75
2018-10-18T11:40:53.371Z,6.03
2018-10-18T11:41:57.566Z,4.90
2018-10-18T11:43:01.478Z,5.55
2018-10-18T11:44:05.760Z,5.30
2018-10-18T11:45:09.852Z,5.95
2018-10-18T11:46:13.963Z,8.23
2018-10-18T11:47:18.036Z,10.93
2018-10-18T11:48:22.093Z,5.15
2018-10-18T11:49:26.150Z,6.28
2018-10-18T11:50:30.212Z,8.35
2018-10-18T11:51:34.331Z,5.15
2018-10-18T11:52:38.546Z,4.85
2018-10-18T11:53:42.698Z,5.33
2018-10-18T11:54:46.724Z,7.00
2018-10-18T11:55:50.848Z,5.22
2018-10-18T11:56:54.988Z,6.45
2018-10-18T11:57:59.137Z,9.58
2018-10-18T11:59:03.562Z,19.87
2018-10-18T12:00:07.529Z,6.17
2018-10-18T12:01:11.655Z,12.47
2018-10-18T12:02:15.799Z,10.15
2018-10-18T12:03:19.844Z,6.65
2018-10-18T12:04:23.986Z,5.50
2018-10-18T12:05:28.089Z,6.20
2018-10-18T12:06:32.098Z,5.33
2018-10-18T12:07:36.179Z,5.20
2018-10-18T12:08:40.268Z,5.50
2018-10-18T12:09:44.334Z,3.98
2018-10-18T12:10:48.491Z,5.92
2018-10-18T12:11:52.621Z,5.05
2018-10-18T12:12:56.643Z,5.37
2018-10-18T12:14:01.200Z,4.28
2018-10-18T12:15:05.689Z,6.15
2018-10-18T12:16:09.817Z,4.28
2018-10-18T12:17:13.947Z,3.83
2018-10-18T12:18:17.941Z,4.33
2018-10-18T12:19:22.012Z,4.97
2018-10-18T12:20:26.081Z,4.60
2018-10-18T12:21:30.482Z,5.03
2018-10-18T12:22:34.520Z,4.60
2018-10-18T12:23:38.519Z,6.15
2018-10-18T12:24:43.036Z,4.55
2018-10-18T12:25:47.154Z,4.70
2018-10-18T12:26:51.281Z,5.40
2018-10-18T12:27:55.265Z,6.28
2018-10-18T12:28:59.452Z,10.13
2018-10-18T12:30:03.933Z,4.08
2018-10-18T12:31:08.002Z,6.03
2018-10-18T12:32:12.124Z,6.22
2018-10-18T12:33:16.572Z,5.05
2018-10-18T12:34:20.700Z,6.05
2018-10-18T12:35:24.768Z,6.92
2018-10-18T12:36:28.820Z,8.30
2018-10-18T12:37:32.881Z,6.47
2018-10-18T12:38:36.994Z,4.78
2018-10-18T12:39:41.210Z,9.03
2018-10-18T12:40:45.251Z,5.50
2018-10-18T12:41:49.277Z,4.22
2018-10-18T12:42:53.313Z,4.45
2018-10-18T12:43:57.524Z,9.65
2018-10-18T12:45:01.583Z,4.75
2018-10-18T12:46:05.968Z,15.08
2018-10-18T12:47:11.167Z,5.65
2018-10-18T12:48:15.377Z,7.00
2018-10-18T12:49:19.330Z,5.95
2018-10-18T12:50:23.433Z,6.12
2018-10-18T12:51:27.447Z,5.72
2018-10-18T12:52:31.476Z,4.92
2018-10-18T12:53:35.579Z,5.55
2018-10-18T12:54:39.906Z,6.35
2018-10-18T12:55:43.974Z,4.75
2018-10-18T12:56:47.976Z,6.25
2018-10-18T12:57:52.100Z,4.70
2018-10-18T12:58:56.113Z,5.37
2018-10-18T13:00:00.627Z,6.60
2018-10-18T13:01:05.038Z,8.75
2018-10-18T13:02:09.147Z,5.17
2018-10-18T13:03:13.125Z,5.90
2018-10-18T13:04:17.161Z,8.38
2018-10-18T13:05:21.255Z,7.25
2018-10-18T13:06:25.497Z,4.55
2018-10-18T13:07:29.551Z,4.12
2018-10-18T13:08:33.933Z,6.17
2018-10-18T13:09:37.947Z,6.28
2018-10-18T13:10:41.986Z,4.67
2018-10-18T13:11:46.089Z,6.55
2018-10-18T13:12:50.164Z,12.35
2018-10-18T13:13:54.235Z,6.80
2018-10-18T13:14:58.344Z,6.22
2018-10-18T13:16:02.442Z,4.87
2018-10-18T13:17:06.775Z,5.92
2018-10-18T13:18:10.915Z,7.47
2018-10-18T13:19:14.940Z,6.17
2018-10-18T13:20:19.363Z,6.30
2018-10-18T13:21:23.471Z,4.42
2018-10-18T13:22:27.503Z,4.47
2018-10-18T13:23:31.567Z,4.83
2018-10-18T13:24:35.643Z,6.53
2018-10-18T13:25:39.955Z,5.40
2018-10-18T13:26:44.051Z,5.05
2018-10-18T13:27:48.083Z,4.85
2018-10-18T13:28:52.076Z,5.45
2018-10-18T13:29:56.188Z,11.35
2018-10-18T13:31:00.161Z,7.20
2018-10-18T13:32:04.368Z,4.87
2018-10-18T13:33:08.397Z,6.97
2018-10-18T13:34:12.612Z,7.20
2018-10-18T13:35:16.567Z,9.75
2018-10-18T13:36:20.630Z,6.53
2018-10-18T13:37:24.691Z,6.33
2018-10-18T13:38:28.764Z,6.47
2018-10-18T13:39:32.817Z,6.03
2018-10-18T13:40:36.944Z,9.40
2018-10-18T13:41:40.912Z,11.93
2018-10-18T13:42:44.996Z,9.65
2018-10-18T13:43:49.126Z,10.95
2018-10-18T13:44:53.215Z,12.10
2018-10-18T13:45:57.205Z,12.33
2018-10-18T13:47:01.275Z,12.10
2018-10-18T13:48:05.730Z,14.25
2018-10-18T13:49:09.853Z,9.83
2018-10-18T13:50:14.020Z,11.83
2018-10-18T13:51:18.198Z,12.47
2018-10-18T13:52:22.637Z,12.13
2018-10-18T13:53:26.632Z,14.28
2018-10-18T13:54:30.726Z,17.15